sensor_id;sensor_type;location;lat;lon;timestamp;P1;durP1;ratioP1;P2;durP2;ratioP2
56045;SDS011;41913;51.030;3.706;2022-07-29T00:01:01;7.47;;;2.85;;
56045;SDS011;41913;51.030;3.706;2022-07-29T00:03:33;6.43;;;2.60;;
56045;SDS011;41913;51.030;3.706;2022-07-29T00:05:59;8.43;;;3.15;;
56045;SDS011;41913;51.030;3.706;2022-07-29T00:08:25;7.05;;;2.20;;
56045;SDS011;41913;51.030;3.706;2022-07-29T00:10:51;7.30;;;2.83;;
56045;SDS011;41913;51.030;3.706;2022-07-29T00:13:16;3.92;;;1.83;;
56045;SDS011;41913;51.030;3.706;2022-07-29T00:15:42;8.90;;;2.53;;
56045;SDS011;41913;51.030;3.706;2022-07-29T00:18:08;4.40;;;2.55;;
56045;SDS011;41913;51.030;3.706;2022-07-29T00:20:34;4.00;;;2.15;;
56045;SDS011;41913;51.030;3.706;2022-07-29T00:22:59;8.10;;;2.72;;
56045;SDS011;41913;51.030;3.706;2022-07-29T00:25:25;10.63;;;2.30;;
56045;SDS011;41913;51.030;3.706;2022-07-29T00:27:50;9.00;;;4.38;;
56045;SDS011;41913;51.030;3.706;2022-07-29T00:30:16;3.78;;;2.58;;
56045;SDS011;41913;51.030;3.706;2022-07-29T00:32:42;3.53;;;2.40;;
56045;SDS011;41913;51.030;3.706;2022-07-29T00:35:08;6.13;;;2.63;;
56045;SDS011;41913;51.030;3.706;2022-07-29T00:37:52;8.00;;;3.15;;
56045;SDS011;41913;51.030;3.706;2022-07-29T00:40:18;7.82;;;3.03;;
56045;SDS011;41913;51.030;3.706;2022-07-29T00:42:44;6.25;;;2.80;;
56045;SDS011;41913;51.030;3.706;2022-07-29T00:45:12;9.88;;;3.03;;
56045;SDS011;41913;51.030;3.706;2022-07-29T00:47:38;5.25;;;1.90;;
56045;SDS011;41913;51.030;3.706;2022-07-29T00:50:04;6.07;;;2.10;;
56045;SDS011;41913;51.030;3.706;2022-07-29T00:52:32;9.75;;;3.25;;
56045;SDS011;41913;51.030;3.706;2022-07-29T00:55:04;4.78;;;3.53;;
56045;SDS011;41913;51.030;3.706;2022-07-29T00:57:32;8.37;;;2.80;;
56045;SDS011;41913;51.030;3.706;2022-07-29T00:59:59;5.25;;;2.35;;
56045;SDS011;41913;51.030;3.706;2022-07-29T01:02:25;6.20;;;2.33;;
56045;SDS011;41913;51.030;3.706;2022-07-29T01:04:51;3.78;;;2.22;;
56045;SDS011;41913;51.030;3.706;2022-07-29T01:07:18;9.20;;;3.47;;
56045;SDS011;41913;51.030;3.706;2022-07-29T01:09:44;5.65;;;2.47;;
56045;SDS011;41913;51.030;3.706;2022-07-29T01:12:13;7.30;;;2.38;;
56045;SDS011;41913;51.030;3.706;2022-07-29T01:14:42;5.38;;;2.83;;
56045;SDS011;41913;51.030;3.706;2022-07-29T01:17:12;3.90;;;2.72;;
56045;SDS011;41913;51.030;3.706;2022-07-29T01:22:28;10.98;;;2.47;;
56045;SDS011;41913;51.030;3.706;2022-07-29T01:31:08;6.03;;;2.50;;
56045;SDS011;41913;51.030;3.706;2022-07-29T01:33:38;5.57;;;2.53;;
56045;SDS011;41913;51.030;3.706;2022-07-29T01:39:10;3.95;;;2.40;;
56045;SDS011;41913;51.030;3.706;2022-07-29T01:41:44;2.42;;;2.10;;
56045;SDS011;41913;51.030;3.706;2022-07-29T01:44:20;7.07;;;2.20;;
56045;SDS011;41913;51.030;3.706;2022-07-29T01:46:55;9.25;;;1.90;;
56045;SDS011;41913;51.030;3.706;2022-07-29T01:49:28;10.05;;;2.92;;
56045;SDS011;41913;51.030;3.706;2022-07-29T01:52:05;9.57;;;3.05;;
56045;SDS011;41913;51.030;3.706;2022-07-29T01:54:43;4.50;;;2.35;;
56045;SDS011;41913;51.030;3.706;2022-07-29T01:57:14;5.47;;;2.17;;
56045;SDS011;41913;51.030;3.706;2022-07-29T01:59:45;2.30;;;2.10;;
56045;SDS011;41913;51.030;3.706;2022-07-29T02:02:12;6.95;;;1.52;;
56045;SDS011;41913;51.030;3.706;2022-07-29T02:04:42;3.22;;;1.95;;
56045;SDS011;41913;51.030;3.706;2022-07-29T02:07:13;2.90;;;1.80;;
56045;SDS011;41913;51.030;3.706;2022-07-29T02:09:43;4.90;;;1.98;;
56045;SDS011;41913;51.030;3.706;2022-07-29T02:12:10;8.25;;;2.45;;
56045;SDS011;41913;51.030;3.706;2022-07-29T02:14:42;2.45;;;1.83;;
56045;SDS011;41913;51.030;3.706;2022-07-29T02:17:11;2.80;;;1.73;;
56045;SDS011;41913;51.030;3.706;2022-07-29T02:19:38;5.05;;;1.83;;
56045;SDS011;41913;51.030;3.706;2022-07-29T02:22:05;4.53;;;2.45;;
56045;SDS011;41913;51.030;3.706;2022-07-29T02:24:35;3.05;;;1.95;;
56045;SDS011;41913;51.030;3.706;2022-07-29T02:27:02;1.98;;;1.88;;
56045;SDS011;41913;51.030;3.706;2022-07-29T02:29:28;4.32;;;1.92;;
56045;SDS011;41913;51.030;3.706;2022-07-29T02:32:06;2.95;;;2.13;;
56045;SDS011;41913;51.030;3.706;2022-07-29T02:34:37;3.03;;;1.60;;
56045;SDS011;41913;51.030;3.706;2022-07-29T02:37:11;2.28;;;2.10;;
56045;SDS011;41913;51.030;3.706;2022-07-29T02:39:39;5.30;;;1.73;;
56045;SDS011;41913;51.030;3.706;2022-07-29T02:42:07;4.65;;;1.88;;
56045;SDS011;41913;51.030;3.706;2022-07-29T02:44:37;1.83;;;1.73;;
56045;SDS011;41913;51.030;3.706;2022-07-29T02:52:32;3.58;;;1.70;;
56045;SDS011;41913;51.030;3.706;2022-07-29T02:55:25;2.33;;;1.38;;
56045;SDS011;41913;51.030;3.706;2022-07-29T03:00:27;5.07;;;2.05;;
56045;SDS011;41913;51.030;3.706;2022-07-29T03:02:57;2.22;;;2.03;;
56045;SDS011;41913;51.030;3.706;2022-07-29T03:05:24;5.40;;;1.85;;
56045;SDS011;41913;51.030;3.706;2022-07-29T03:07:57;6.25;;;1.73;;
56045;SDS011;41913;51.030;3.706;2022-07-29T03:10:27;3.92;;;1.63;;
56045;SDS011;41913;51.030;3.706;2022-07-29T03:12:54;2.85;;;2.08;;
56045;SDS011;41913;51.030;3.706;2022-07-29T03:15:22;8.00;;;2.63;;
56045;SDS011;41913;51.030;3.706;2022-07-29T03:17:48;2.38;;;2.05;;
56045;SDS011;41913;51.030;3.706;2022-07-29T03:20:16;4.80;;;1.58;;
56045;SDS011;41913;51.030;3.706;2022-07-29T03:22:43;3.15;;;1.80;;
56045;SDS011;41913;51.030;3.706;2022-07-29T03:25:12;5.13;;;1.70;;
56045;SDS011;41913;51.030;3.706;2022-07-29T03:27:39;3.85;;;1.95;;
56045;SDS011;41913;51.030;3.706;2022-07-29T03:30:06;2.03;;;1.70;;
56045;SDS011;41913;51.030;3.706;2022-07-29T03:32:32;2.17;;;1.60;;
56045;SDS011;41913;51.030;3.706;2022-07-29T03:34:58;2.13;;;1.70;;
56045;SDS011;41913;51.030;3.706;2022-07-29T03:37:24;4.28;;;1.73;;
56045;SDS011;41913;51.030;3.706;2022-07-29T03:39:50;3.35;;;1.90;;
56045;SDS011;41913;51.030;3.706;2022-07-29T03:42:16;2.63;;;2.40;;
56045;SDS011;41913;51.030;3.706;2022-07-29T03:44:47;4.10;;;2.60;;
56045;SDS011;41913;51.030;3.706;2022-07-29T03:47:16;3.63;;;2.15;;
56045;SDS011;41913;51.030;3.706;2022-07-29T03:49:46;2.03;;;1.90;;
56045;SDS011;41913;51.030;3.706;2022-07-29T03:52:16;3.72;;;2.60;;
56045;SDS011;41913;51.030;3.706;2022-07-29T03:54:45;5.72;;;2.00;;
56045;SDS011;41913;51.030;3.706;2022-07-29T03:57:11;2.63;;;2.25;;
56045;SDS011;41913;51.030;3.706;2022-07-29T03:59:38;2.60;;;2.40;;
56045;SDS011;41913;51.030;3.706;2022-07-29T04:02:05;4.28;;;2.10;;
56045;SDS011;41913;51.030;3.706;2022-07-29T04:04:38;2.15;;;1.70;;
56045;SDS011;41913;51.030;3.706;2022-07-29T04:07:04;9.93;;;2.38;;
56045;SDS011;41913;51.030;3.706;2022-07-29T04:09:31;8.65;;;2.30;;
56045;SDS011;41913;51.030;3.706;2022-07-29T04:12:00;3.67;;;2.13;;
56045;SDS011;41913;51.030;3.706;2022-07-29T04:14:25;3.67;;;2.05;;
56045;SDS011;41913;51.030;3.706;2022-07-29T04:16:53;2.85;;;2.28;;
56045;SDS011;41913;51.030;3.706;2022-07-29T04:19:19;4.32;;;2.05;;
56045;SDS011;41913;51.030;3.706;2022-07-29T04:21:45;3.35;;;2.67;;
56045;SDS011;41913;51.030;3.706;2022-07-29T04:24:14;7.68;;;1.98;;
56045;SDS011;41913;51.030;3.706;2022-07-29T04:26:42;2.92;;;2.28;;
56045;SDS011;41913;51.030;3.706;2022-07-29T04:29:08;2.05;;;1.88;;
56045;SDS011;41913;51.030;3.706;2022-07-29T04:31:42;5.07;;;2.22;;
56045;SDS011;41913;51.030;3.706;2022-07-29T04:34:10;3.38;;;2.17;;
56045;SDS011;41913;51.030;3.706;2022-07-29T04:36:36;2.55;;;2.35;;
56045;SDS011;41913;51.030;3.706;2022-07-29T04:39:03;3.13;;;2.58;;
56045;SDS011;41913;51.030;3.706;2022-07-29T04:41:29;7.40;;;3.00;;
56045;SDS011;41913;51.030;3.706;2022-07-29T04:43:56;4.10;;;3.03;;
56045;SDS011;41913;51.030;3.706;2022-07-29T04:46:22;4.75;;;4.03;;
56045;SDS011;41913;51.030;3.706;2022-07-29T04:48:53;6.55;;;3.22;;
56045;SDS011;41913;51.030;3.706;2022-07-29T04:51:19;8.02;;;4.80;;
56045;SDS011;41913;51.030;3.706;2022-07-29T04:53:46;5.03;;;3.65;;
56045;SDS011;41913;51.030;3.706;2022-07-29T04:56:11;12.40;;;4.95;;
56045;SDS011;41913;51.030;3.706;2022-07-29T04:58:37;6.22;;;4.35;;
56045;SDS011;41913;51.030;3.706;2022-07-29T05:01:03;11.05;;;4.25;;
56045;SDS011;41913;51.030;3.706;2022-07-29T05:03:30;4.65;;;4.15;;
56045;SDS011;41913;51.030;3.706;2022-07-29T05:05:55;8.02;;;4.95;;
56045;SDS011;41913;51.030;3.706;2022-07-29T05:08:23;9.43;;;4.40;;
56045;SDS011;41913;51.030;3.706;2022-07-29T05:10:48;7.90;;;4.38;;
56045;SDS011;41913;51.030;3.706;2022-07-29T05:13:14;8.10;;;4.40;;
56045;SDS011;41913;51.030;3.706;2022-07-29T05:15:42;5.63;;;3.90;;
56045;SDS011;41913;51.030;3.706;2022-07-29T05:18:07;4.93;;;3.95;;
56045;SDS011;41913;51.030;3.706;2022-07-29T05:20:33;8.07;;;3.95;;
56045;SDS011;41913;51.030;3.706;2022-07-29T05:23:00;12.07;;;3.92;;
56045;SDS011;41913;51.030;3.706;2022-07-29T05:25:27;6.88;;;4.45;;
56045;SDS011;41913;51.030;3.706;2022-07-29T05:27:54;3.78;;;3.22;;
56045;SDS011;41913;51.030;3.706;2022-07-29T05:30:20;5.55;;;3.35;;
56045;SDS011;41913;51.030;3.706;2022-07-29T05:32:46;8.43;;;3.17;;
56045;SDS011;41913;51.030;3.706;2022-07-29T05:35:12;8.00;;;3.60;;
56045;SDS011;41913;51.030;3.706;2022-07-29T05:37:38;10.50;;;4.22;;
56045;SDS011;41913;51.030;3.706;2022-07-29T05:40:04;4.47;;;3.90;;
56045;SDS011;41913;51.030;3.706;2022-07-29T05:42:31;15.82;;;3.25;;
56045;SDS011;41913;51.030;3.706;2022-07-29T05:44:57;9.43;;;4.05;;
56045;SDS011;41913;51.030;3.706;2022-07-29T05:47:25;6.40;;;4.32;;
56045;SDS011;41913;51.030;3.706;2022-07-29T05:49:51;10.23;;;3.50;;
56045;SDS011;41913;51.030;3.706;2022-07-29T05:52:16;7.90;;;3.60;;
56045;SDS011;41913;51.030;3.706;2022-07-29T05:54:42;14.55;;;4.00;;
56045;SDS011;41913;51.030;3.706;2022-07-29T05:57:14;8.35;;;4.53;;
56045;SDS011;41913;51.030;3.706;2022-07-29T06:02:07;10.27;;;4.90;;
56045;SDS011;41913;51.030;3.706;2022-07-29T06:04:32;15.55;;;5.57;;
56045;SDS011;41913;51.030;3.706;2022-07-29T06:06:58;18.10;;;6.28;;
56045;SDS011;41913;51.030;3.706;2022-07-29T06:09:26;22.05;;;5.93;;
56045;SDS011;41913;51.030;3.706;2022-07-29T06:11:52;21.25;;;6.47;;
56045;SDS011;41913;51.030;3.706;2022-07-29T06:14:18;11.27;;;6.13;;
56045;SDS011;41913;51.030;3.706;2022-07-29T06:16:44;12.07;;;6.57;;
56045;SDS011;41913;51.030;3.706;2022-07-29T06:19:09;16.20;;;6.95;;
56045;SDS011;41913;51.030;3.706;2022-07-29T06:21:35;10.52;;;6.20;;
56045;SDS011;41913;51.030;3.706;2022-07-29T06:24:01;13.98;;;6.47;;
56045;SDS011;41913;51.030;3.706;2022-07-29T06:26:28;12.25;;;7.18;;
56045;SDS011;41913;51.030;3.706;2022-07-29T06:28:53;11.70;;;6.20;;
56045;SDS011;41913;51.030;3.706;2022-07-29T06:31:19;16.45;;;7.70;;
56045;SDS011;41913;51.030;3.706;2022-07-29T06:33:45;22.92;;;8.23;;
56045;SDS011;41913;51.030;3.706;2022-07-29T06:36:10;19.05;;;8.07;;
56045;SDS011;41913;51.030;3.706;2022-07-29T06:38:36;6.88;;;5.63;;
56045;SDS011;41913;51.030;3.706;2022-07-29T06:41:03;15.65;;;6.15;;
56045;SDS011;41913;51.030;3.706;2022-07-29T06:43:37;21.02;;;6.57;;
56045;SDS011;41913;51.030;3.706;2022-07-29T06:46:07;15.45;;;6.65;;
56045;SDS011;41913;51.030;3.706;2022-07-29T06:48:34;16.33;;;6.05;;
56045;SDS011;41913;51.030;3.706;2022-07-29T06:51:01;17.98;;;8.35;;
56045;SDS011;41913;51.030;3.706;2022-07-29T06:53:29;12.50;;;6.82;;
56045;SDS011;41913;51.030;3.706;2022-07-29T06:55:58;10.57;;;6.45;;
56045;SDS011;41913;51.030;3.706;2022-07-29T06:58:28;17.80;;;6.68;;
56045;SDS011;41913;51.030;3.706;2022-07-29T07:00:55;11.35;;;6.00;;
56045;SDS011;41913;51.030;3.706;2022-07-29T07:03:22;6.85;;;5.07;;
56045;SDS011;41913;51.030;3.706;2022-07-29T07:05:49;12.55;;;5.28;;
56045;SDS011;41913;51.030;3.706;2022-07-29T07:08:15;9.38;;;6.15;;
56045;SDS011;41913;51.030;3.706;2022-07-29T07:10:41;7.07;;;5.88;;
56045;SDS011;41913;51.030;3.706;2022-07-29T07:13:08;10.07;;;5.97;;
56045;SDS011;41913;51.030;3.706;2022-07-29T07:15:34;6.32;;;5.07;;
56045;SDS011;41913;51.030;3.706;2022-07-29T07:18:01;12.65;;;5.68;;
56045;SDS011;41913;51.030;3.706;2022-07-29T07:20:27;16.90;;;6.97;;
56045;SDS011;41913;51.030;3.706;2022-07-29T07:22:53;9.48;;;5.82;;
56045;SDS011;41913;51.030;3.706;2022-07-29T07:25:19;10.20;;;5.97;;
56045;SDS011;41913;51.030;3.706;2022-07-29T07:27:45;7.22;;;5.80;;
56045;SDS011;41913;51.030;3.706;2022-07-29T07:30:12;13.07;;;5.70;;
56045;SDS011;41913;51.030;3.706;2022-07-29T07:32:38;13.57;;;6.68;;
56045;SDS011;41913;51.030;3.706;2022-07-29T07:35:05;10.00;;;7.28;;
56045;SDS011;41913;51.030;3.706;2022-07-29T07:37:37;11.00;;;6.78;;
56045;SDS011;41913;51.030;3.706;2022-07-29T07:40:05;9.43;;;7.03;;
56045;SDS011;41913;51.030;3.706;2022-07-29T07:42:32;12.15;;;7.35;;
56045;SDS011;41913;51.030;3.706;2022-07-29T07:44:58;9.43;;;6.85;;
56045;SDS011;41913;51.030;3.706;2022-07-29T07:47:25;10.63;;;7.47;;
56045;SDS011;41913;51.030;3.706;2022-07-29T07:49:51;13.82;;;7.63;;
56045;SDS011;41913;51.030;3.706;2022-07-29T07:52:18;14.40;;;8.63;;
56045;SDS011;41913;51.030;3.706;2022-07-29T07:54:45;12.63;;;7.93;;
56045;SDS011;41913;51.030;3.706;2022-07-29T07:57:11;14.77;;;9.80;;
56045;SDS011;41913;51.030;3.706;2022-07-29T07:59:37;14.60;;;9.88;;
56045;SDS011;41913;51.030;3.706;2022-07-29T08:02:04;13.95;;;9.98;;
56045;SDS011;41913;51.030;3.706;2022-07-29T08:04:30;19.08;;;11.05;;
56045;SDS011;41913;51.030;3.706;2022-07-29T08:06:56;18.13;;;12.43;;
56045;SDS011;41913;51.030;3.706;2022-07-29T08:09:23;15.43;;;13.77;;
56045;SDS011;41913;51.030;3.706;2022-07-29T08:11:51;20.08;;;14.20;;
56045;SDS011;41913;51.030;3.706;2022-07-29T08:14:17;13.07;;;11.07;;
56045;SDS011;41913;51.030;3.706;2022-07-29T08:16:44;18.15;;;10.82;;
56045;SDS011;41913;51.030;3.706;2022-07-29T08:19:10;12.05;;;8.13;;
56045;SDS011;41913;51.030;3.706;2022-07-29T08:21:36;21.75;;;8.45;;
56045;SDS011;41913;51.030;3.706;2022-07-29T08:24:02;9.52;;;6.05;;
56045;SDS011;41913;51.030;3.706;2022-07-29T08:26:47;8.55;;;5.40;;
56045;SDS011;41913;51.030;3.706;2022-07-29T08:29:12;7.38;;;4.72;;
56045;SDS011;41913;51.030;3.706;2022-07-29T08:31:39;8.02;;;4.30;;
56045;SDS011;41913;51.030;3.706;2022-07-29T08:34:05;5.60;;;3.47;;
56045;SDS011;41913;51.030;3.706;2022-07-29T08:36:33;8.77;;;3.40;;
56045;SDS011;41913;51.030;3.706;2022-07-29T08:38:59;6.82;;;2.50;;
56045;SDS011;41913;51.030;3.706;2022-07-29T08:41:26;5.85;;;3.40;;
56045;SDS011;41913;51.030;3.706;2022-07-29T08:43:52;4.53;;;2.53;;
56045;SDS011;41913;51.030;3.706;2022-07-29T08:46:18;3.42;;;2.45;;
56045;SDS011;41913;51.030;3.706;2022-07-29T08:48:45;10.32;;;2.58;;
56045;SDS011;41913;51.030;3.706;2022-07-29T08:51:15;8.13;;;2.83;;
56045;SDS011;41913;51.030;3.706;2022-07-29T08:53:44;7.07;;;3.08;;
56045;SDS011;41913;51.030;3.706;2022-07-29T08:56:13;5.30;;;2.80;;
56045;SDS011;41913;51.030;3.706;2022-07-29T08:58:42;5.13;;;2.42;;
56045;SDS011;41913;51.030;3.706;2022-07-29T09:01:08;5.57;;;2.33;;
56045;SDS011;41913;51.030;3.706;2022-07-29T09:03:38;4.97;;;3.00;;
56045;SDS011;41913;51.030;3.706;2022-07-29T09:06:06;4.53;;;2.80;;
56045;SDS011;41913;51.030;3.706;2022-07-29T09:08:32;4.25;;;2.13;;
56045;SDS011;41913;51.030;3.706;2022-07-29T09:11:00;10.02;;;2.15;;
56045;SDS011;41913;51.030;3.706;2022-07-29T09:13:26;4.53;;;2.47;;
56045;SDS011;41913;51.030;3.706;2022-07-29T09:15:52;3.95;;;2.25;;
56045;SDS011;41913;51.030;3.706;2022-07-29T09:21:02;6.38;;;2.95;;
56045;SDS011;41913;51.030;3.706;2022-07-29T09:26:34;1.90;;;1.60;;
56045;SDS011;41913;51.030;3.706;2022-07-29T09:29:07;4.07;;;1.73;;
56045;SDS011;41913;51.030;3.706;2022-07-29T09:31:55;4.28;;;2.05;;
56045;SDS011;41913;51.030;3.706;2022-07-29T09:34:22;4.65;;;2.15;;
56045;SDS011;41913;51.030;3.706;2022-07-29T09:36:50;6.95;;;1.75;;
56045;SDS011;41913;51.030;3.706;2022-07-29T09:39:26;5.95;;;1.33;;
56045;SDS011;41913;51.030;3.706;2022-07-29T09:41:54;3.53;;;1.73;;
56045;SDS011;41913;51.030;3.706;2022-07-29T09:44:22;2.90;;;1.45;;
56045;SDS011;41913;51.030;3.706;2022-07-29T09:46:59;2.08;;;1.50;;
56045;SDS011;41913;51.030;3.706;2022-07-29T09:49:50;4.65;;;1.50;;
56045;SDS011;41913;51.030;3.706;2022-07-29T09:52:18;4.80;;;1.60;;
56045;SDS011;41913;51.030;3.706;2022-07-29T09:54:45;1.55;;;0.90;;
56045;SDS011;41913;51.030;3.706;2022-07-29T09:57:28;5.45;;;1.90;;
56045;SDS011;41913;51.030;3.706;2022-07-29T10:02:28;2.05;;;1.70;;
56045;SDS011;41913;51.030;3.706;2022-07-29T10:04:55;3.17;;;1.42;;
56045;SDS011;41913;51.030;3.706;2022-07-29T10:07:20;4.05;;;1.50;;
56045;SDS011;41913;51.030;3.706;2022-07-29T10:10:04;5.57;;;2.40;;
56045;SDS011;41913;51.030;3.706;2022-07-29T10:12:32;3.60;;;1.90;;
56045;SDS011;41913;51.030;3.706;2022-07-29T10:14:58;4.15;;;2.25;;
56045;SDS011;41913;51.030;3.706;2022-07-29T10:17:27;2.80;;;1.80;;
56045;SDS011;41913;51.030;3.706;2022-07-29T10:19:53;1.60;;;1.40;;
56045;SDS011;41913;51.030;3.706;2022-07-29T10:22:20;2.83;;;1.80;;
56045;SDS011;41913;51.030;3.706;2022-07-29T10:24:47;1.60;;;1.50;;
56045;SDS011;41913;51.030;3.706;2022-07-29T10:27:13;2.88;;;1.60;;
56045;SDS011;41913;51.030;3.706;2022-07-29T10:29:39;1.98;;;1.50;;
56045;SDS011;41913;51.030;3.706;2022-07-29T10:32:24;6.40;;;1.52;;
56045;SDS011;41913;51.030;3.706;2022-07-29T10:35:19;3.15;;;1.83;;
56045;SDS011;41913;51.030;3.706;2022-07-29T10:43:50;6.25;;;1.60;;
56045;SDS011;41913;51.030;3.706;2022-07-29T10:46:21;2.13;;;1.30;;
56045;SDS011;41913;51.030;3.706;2022-07-29T10:49:07;2.28;;;1.35;;
56045;SDS011;41913;51.030;3.706;2022-07-29T10:59:46;3.38;;;1.33;;
56045;SDS011;41913;51.030;3.706;2022-07-29T11:10:37;3.75;;;1.27;;
56045;SDS011;41913;51.030;3.706;2022-07-29T11:13:03;2.05;;;1.63;;
56045;SDS011;41913;51.030;3.706;2022-07-29T11:15:29;1.90;;;1.20;;
56045;SDS011;41913;51.030;3.706;2022-07-29T11:18:19;2.67;;;1.15;;
56045;SDS011;41913;51.030;3.706;2022-07-29T11:23:22;13.02;;;1.35;;
56045;SDS011;41913;51.030;3.706;2022-07-29T11:28:39;1.73;;;1.38;;
56045;SDS011;41913;51.030;3.706;2022-07-29T11:31:42;3.17;;;1.27;;
56045;SDS011;41913;51.030;3.706;2022-07-29T11:34:17;2.85;;;1.60;;
56045;SDS011;41913;51.030;3.706;2022-07-29T11:44:57;5.78;;;1.70;;
56045;SDS011;41913;51.030;3.706;2022-07-29T11:47:25;2.78;;;1.05;;
56045;SDS011;41913;51.030;3.706;2022-07-29T11:49:52;3.45;;;1.40;;
56045;SDS011;41913;51.030;3.706;2022-07-29T11:52:19;3.13;;;1.63;;
56045;SDS011;41913;51.030;3.706;2022-07-29T11:54:49;4.35;;;1.40;;
56045;SDS011;41913;51.030;3.706;2022-07-29T11:57:15;4.78;;;1.85;;
56045;SDS011;41913;51.030;3.706;2022-07-29T11:59:44;3.13;;;1.42;;
56045;SDS011;41913;51.030;3.706;2022-07-29T12:02:11;5.25;;;1.75;;
56045;SDS011;41913;51.030;3.706;2022-07-29T12:07:16;9.68;;;1.85;;
56045;SDS011;41913;51.030;3.706;2022-07-29T12:09:51;5.25;;;2.25;;
56045;SDS011;41913;51.030;3.706;2022-07-29T12:12:19;4.18;;;1.77;;
56045;SDS011;41913;51.030;3.706;2022-07-29T12:14:46;6.47;;;1.40;;
56045;SDS011;41913;51.030;3.706;2022-07-29T12:17:25;2.13;;;1.63;;
56045;SDS011;41913;51.030;3.706;2022-07-29T12:19:56;6.20;;;1.83;;
56045;SDS011;41913;51.030;3.706;2022-07-29T12:22:30;2.78;;;1.20;;
56045;SDS011;41913;51.030;3.706;2022-07-29T12:25:04;3.13;;;1.45;;
56045;SDS011;41913;51.030;3.706;2022-07-29T12:27:35;6.72;;;5.05;;
56045;SDS011;41913;51.030;3.706;2022-07-29T12:30:06;1.75;;;1.42;;
56045;SDS011;41913;51.030;3.706;2022-07-29T12:32:34;3.27;;;2.77;;
56045;SDS011;41913;51.030;3.706;2022-07-29T12:35:34;2.63;;;1.75;;
56045;SDS011;41913;51.030;3.706;2022-07-29T12:37:53;5.47;;;1.63;;
56045;SDS011;41913;51.030;3.706;2022-07-29T12:40:20;5.50;;;1.92;;
56045;SDS011;41913;51.030;3.706;2022-07-29T12:45:54;4.28;;;2.00;;
56045;SDS011;41913;51.030;3.706;2022-07-29T12:48:34;3.08;;;2.55;;
56045;SDS011;41913;51.030;3.706;2022-07-29T12:51:09;4.20;;;2.17;;
56045;SDS011;41913;51.030;3.706;2022-07-29T12:53:37;3.28;;;1.40;;
56045;SDS011;41913;51.030;3.706;2022-07-29T12:56:03;4.07;;;1.50;;
56045;SDS011;41913;51.030;3.706;2022-07-29T12:58:34;3.03;;;1.50;;
56045;SDS011;41913;51.030;3.706;2022-07-29T13:01:06;1.80;;;1.30;;
56045;SDS011;41913;51.030;3.706;2022-07-29T13:11:48;3.03;;;1.60;;
56045;SDS011;41913;51.030;3.706;2022-07-29T13:14:35;3.75;;;2.05;;
56045;SDS011;41913;51.030;3.706;2022-07-29T13:17:10;4.65;;;2.47;;
56045;SDS011;41913;51.030;3.706;2022-07-29T13:19:40;9.30;;;1.70;;
56045;SDS011;41913;51.030;3.706;2022-07-29T13:22:14;3.28;;;1.85;;
56045;SDS011;41913;51.030;3.706;2022-07-29T13:27:18;3.35;;;1.30;;
56045;SDS011;41913;51.030;3.706;2022-07-29T13:29:45;8.25;;;2.00;;
56045;SDS011;41913;51.030;3.706;2022-07-29T13:32:11;5.40;;;1.40;;
56045;SDS011;41913;51.030;3.706;2022-07-29T13:34:41;3.90;;;1.77;;
56045;SDS011;41913;51.030;3.706;2022-07-29T13:39:35;5.60;;;1.65;;
56045;SDS011;41913;51.030;3.706;2022-07-29T13:42:02;4.63;;;2.67;;
56045;SDS011;41913;51.030;3.706;2022-07-29T13:44:29;6.78;;;2.10;;
56045;SDS011;41913;51.030;3.706;2022-07-29T13:46:54;4.38;;;1.90;;
56045;SDS011;41913;51.030;3.706;2022-07-29T13:49:21;4.38;;;1.50;;
56045;SDS011;41913;51.030;3.706;2022-07-29T13:51:48;3.63;;;1.60;;
56045;SDS011;41913;51.030;3.706;2022-07-29T13:54:14;4.80;;;1.40;;
56045;SDS011;41913;51.030;3.706;2022-07-29T13:56:41;3.47;;;1.80;;
56045;SDS011;41913;51.030;3.706;2022-07-29T13:59:07;4.45;;;1.80;;
56045;SDS011;41913;51.030;3.706;2022-07-29T14:01:34;3.53;;;1.42;;
56045;SDS011;41913;51.030;3.706;2022-07-29T14:04:00;3.55;;;1.88;;
56045;SDS011;41913;51.030;3.706;2022-07-29T14:06:25;6.30;;;1.83;;
56045;SDS011;41913;51.030;3.706;2022-07-29T14:08:52;5.07;;;1.73;;
56045;SDS011;41913;51.030;3.706;2022-07-29T14:11:19;2.95;;;1.38;;
56045;SDS011;41913;51.030;3.706;2022-07-29T14:13:45;4.15;;;1.42;;
56045;SDS011;41913;51.030;3.706;2022-07-29T14:16:11;3.38;;;1.92;;
56045;SDS011;41913;51.030;3.706;2022-07-29T14:18:38;1.40;;;1.10;;
56045;SDS011;41913;51.030;3.706;2022-07-29T14:21:04;6.18;;;2.28;;
56045;SDS011;41913;51.030;3.706;2022-07-29T14:23:30;6.63;;;1.85;;
56045;SDS011;41913;51.030;3.706;2022-07-29T14:25:59;3.03;;;1.52;;
56045;SDS011;41913;51.030;3.706;2022-07-29T14:28:25;1.85;;;1.33;;
56045;SDS011;41913;51.030;3.706;2022-07-29T14:30:50;2.28;;;1.50;;
56045;SDS011;41913;51.030;3.706;2022-07-29T14:33:16;2.22;;;1.30;;
56045;SDS011;41913;51.030;3.706;2022-07-29T14:35:42;2.58;;;1.30;;
56045;SDS011;41913;51.030;3.706;2022-07-29T14:38:09;2.67;;;1.23;;
56045;SDS011;41913;51.030;3.706;2022-07-29T14:40:34;5.53;;;1.90;;
56045;SDS011;41913;51.030;3.706;2022-07-29T14:43:01;3.60;;;1.70;;
56045;SDS011;41913;51.030;3.706;2022-07-29T14:45:28;4.00;;;1.48;;
56045;SDS011;41913;51.030;3.706;2022-07-29T14:47:54;4.30;;;1.98;;
56045;SDS011;41913;51.030;3.706;2022-07-29T14:50:20;1.20;;;1.10;;
56045;SDS011;41913;51.030;3.706;2022-07-29T14:52:46;2.67;;;1.60;;
56045;SDS011;41913;51.030;3.706;2022-07-29T14:55:18;6.95;;;1.60;;
56045;SDS011;41913;51.030;3.706;2022-07-29T14:57:44;2.10;;;1.73;;
56045;SDS011;41913;51.030;3.706;2022-07-29T15:00:10;1.60;;;1.48;;
56045;SDS011;41913;51.030;3.706;2022-07-29T15:02:39;6.20;;;1.75;;
56045;SDS011;41913;51.030;3.706;2022-07-29T15:05:05;5.65;;;1.65;;
56045;SDS011;41913;51.030;3.706;2022-07-29T15:07:31;8.13;;;1.63;;
56045;SDS011;41913;51.030;3.706;2022-07-29T15:09:58;4.57;;;1.30;;
56045;SDS011;41913;51.030;3.706;2022-07-29T15:12:24;2.95;;;1.33;;
56045;SDS011;41913;51.030;3.706;2022-07-29T15:14:50;5.00;;;1.52;;
56045;SDS011;41913;51.030;3.706;2022-07-29T15:17:16;3.30;;;1.45;;
56045;SDS011;41913;51.030;3.706;2022-07-29T15:22:11;3.40;;;1.67;;
56045;SDS011;41913;51.030;3.706;2022-07-29T15:27:05;5.75;;;1.65;;
56045;SDS011;41913;51.030;3.706;2022-07-29T15:29:31;2.63;;;1.48;;
56045;SDS011;41913;51.030;3.706;2022-07-29T15:31:57;5.32;;;1.98;;
56045;SDS011;41913;51.030;3.706;2022-07-29T15:34:24;7.82;;;1.70;;
56045;SDS011;41913;51.030;3.706;2022-07-29T15:36:50;3.42;;;1.60;;
56045;SDS011;41913;51.030;3.706;2022-07-29T15:39:16;15.82;;;2.10;;
56045;SDS011;41913;51.030;3.706;2022-07-29T15:41:43;4.22;;;1.83;;
56045;SDS011;41913;51.030;3.706;2022-07-29T15:44:09;4.68;;;1.55;;
56045;SDS011;41913;51.030;3.706;2022-07-29T15:46:35;1.45;;;1.35;;
56045;SDS011;41913;51.030;3.706;2022-07-29T15:49:19;3.95;;;1.67;;
56045;SDS011;41913;51.030;3.706;2022-07-29T15:51:46;2.65;;;1.20;;
56045;SDS011;41913;51.030;3.706;2022-07-29T15:54:11;2.33;;;1.35;;
56045;SDS011;41913;51.030;3.706;2022-07-29T15:56:37;6.60;;;1.92;;
56045;SDS011;41913;51.030;3.706;2022-07-29T15:59:03;2.75;;;1.90;;
56045;SDS011;41913;51.030;3.706;2022-07-29T16:01:28;3.90;;;1.30;;
56045;SDS011;41913;51.030;3.706;2022-07-29T16:03:54;7.03;;;1.42;;
56045;SDS011;41913;51.030;3.706;2022-07-29T16:06:21;4.22;;;1.77;;
56045;SDS011;41913;51.030;3.706;2022-07-29T16:08:47;6.55;;;1.70;;
56045;SDS011;41913;51.030;3.706;2022-07-29T16:11:13;3.30;;;1.33;;
56045;SDS011;41913;51.030;3.706;2022-07-29T16:13:38;2.95;;;1.58;;
56045;SDS011;41913;51.030;3.706;2022-07-29T16:16:04;7.55;;;1.52;;
56045;SDS011;41913;51.030;3.706;2022-07-29T16:18:30;3.05;;;1.83;;
56045;SDS011;41913;51.030;3.706;2022-07-29T16:20:55;5.93;;;1.45;;
56045;SDS011;41913;51.030;3.706;2022-07-29T16:23:21;7.28;;;1.33;;